TFM - Tactical Decision Aid (Experimental) INFO Settings
ID: Runway Winds: CIG/VIS Threshold: METAR Board: Map:

KIAD - Washington-Dulles Intl

Updated at: 1832 UTC 28 Jun 2016
Latest TAF at: 1741 UTC 28 Jun 2016

TAF Board

Time1752Z28/19Z28/20Z28/21Z28/22Z28/23Z29/00Z29/01Z29/02Z29/03Z29/04Z29/05Z29/06Z29/07Z
TypeOBSPRVLPRVLPRVLPRVLPRVLPRVLPRVLPRVLPRVLPRVLPRVLPRVLPRVL
VIS10>6>6>655>6>6>6>6>6>6>6>6
CIG25060404040406060605050505050
CoverBKNBKNBKNBKNBKNBKNBKNBKNBKNBKNBKNBKNBKNBKN
FltCatVFRVFRVFRVFRMVFRMVFRVFRVFRVFRVFRVFRVFRVFRVFR
WX----VCTSVCTS-TSRA-TSRAVCTSVCTSVCTS----------
WDirVRBVRB220220190190230230230320320320320320
WSpd04446655544444
WGst----------------------------
TAF
KIAD 281741Z 2818/2924 VRB04KT P6SM BKN060
  FM282000 22004KT P6SM VCTS BKN040CB
  FM282200 19006KT 5SM -TSRA BKN040CB
  FM290000 23005KT P6SM VCTS BKN060CB
  FM290300 32004KT P6SM BKN050
  FM291300 33008KT P6SM SCT250


METAR
KIAD 281752Z 00000KT 10SM FEW025TCU SCT130 SCT170 BKN250 29/21 A2991 RMK AO2 SLP123 TCU NE T02890206 10294 20239 58010
KIAD 281731Z 25004KT 10SM FEW025TCU BKN090 BKN170 BKN220 29/19 A2991 RMK AO2 TCU NE T02890194

TAF/METAR Board Legend

Potential Impact
  None Marginal Slight Moderate High
Visibility (sm) >5 3≤X≤5 1≤X<3 0.5≤X<1 <0.5
Ceiling (100 ft) >30 10≤X≤30 4≤X<10 2≤X<4 <2
Wind Speed (kt) <10 10≤X<20 20≤X<30 ≥30
Wind Gust (kt) <15 15≤X<25 25≤X<35 ≥35
Weather No Wx Reported VCTS -TS,-FZRA TS,FZRA +TS,+FZRA




Page loaded:  18:32 UTC  |   11:32 AM Pacific  |   12:32 PM Mountain  |   01:32 PM Central  |   02:32 PM Eastern